La Gilda, Argentina
Current Conditions -  °F | °C
As of 6:00 PM on Thursday 23 Oct 2014 (Local Time) from SAOC Reporting Station
Clear Clear  
Wind Chill: 33°   Ceiling: Unl
Heat Index: 33°   Visibility: 6mi
Dew Point:   Wind: 23mph
Humidity: 21%   Direction: 360°N
Pressure: 29.83"   Gusts: NA
Location:  33.25°S, 64.12°W
Report Text: SAOC 232100Z 36020KT CAVOK 33/08 Q1010
Loading
Personal Weather Stations






























Interactive Weather Map
Tropical Storm Tracking
New forecast layout! Learn more

10-Day Weather Forecast

Advertisements
Track Severe Weather on mobile